Sugar Valley, Texas
Current Conditions -  °F | °C
As of 3:53 AM on Tuesday 21 Oct 2014 (Local Time) from KLBX Reporting Station
Clear Clear  
Wind Chill: 57°   Ceiling: Unl
Heat Index: 57°   Visibility: 10mi
Dew Point: 57°   Wind: 6mph
Humidity: 100%   Direction: 20°NNE
Pressure: 29.99"   Gusts: NA
Location:  29.0235°N, 95.7113°W
Report Text: KLBX 210853Z AUTO 02005KT 10SM CLR 14/14 A2999 RMK AO2 SLP153 T01390139 58004 $
Loading
Personal Weather Stations






























Interactive Weather Map
Tropical Storm Tracking
New forecast layout! Learn more

10-Day Weather Forecast

Advertisements
Track Severe Weather on mobile